sensor_id;sensor_type;location;lat;lon;timestamp;pressure;altitude;pressure_sealevel;temperature;humidity
19845;BME280;10083;51.038;7.012;2023-08-07T00:00:44;121879.09;;;15.95;nan
19845;BME280;10083;51.038;7.012;2023-08-07T00:03:13;121864.63;;;15.82;nan
19845;BME280;10083;51.038;7.012;2023-08-07T00:05:50;122129.63;;;15.82;nan
19845;BME280;10083;51.038;7.012;2023-08-07T00:08:21;122349.31;;;15.75;nan
19845;BME280;10083;51.038;7.012;2023-08-07T00:10:51;122522.50;;;15.65;nan
19845;BME280;10083;51.038;7.012;2023-08-07T00:13:18;122971.38;;;15.79;nan
19845;BME280;10083;51.038;7.012;2023-08-07T00:15:48;123169.72;;;15.77;nan
19845;BME280;10083;51.038;7.012;2023-08-07T00:18:18;123278.16;;;15.82;nan
19845;BME280;10083;51.038;7.012;2023-08-07T00:20:52;123409.28;;;15.90;nan
19845;BME280;10083;51.038;7.012;2023-08-07T00:23:25;123345.31;;;15.71;nan
19845;BME280;10083;51.038;7.012;2023-08-07T00:25:58;123538.09;;;15.88;nan
19845;BME280;10083;51.038;7.012;2023-08-07T00:28:27;123633.66;;;15.73;nan
19845;BME280;10083;51.038;7.012;2023-08-07T00:31:01;123715.78;;;15.69;nan
19845;BME280;10083;51.038;7.012;2023-08-07T00:33:33;124065.34;;;15.75;nan
19845;BME280;10083;51.038;7.012;2023-08-07T00:36:02;124242.78;;;15.59;nan
19845;BME280;10083;51.038;7.012;2023-08-07T00:38:36;124609.81;;;15.66;nan
19845;BME280;10083;51.038;7.012;2023-08-07T00:41:10;125050.25;;;15.75;nan
19845;BME280;10083;51.038;7.012;2023-08-07T00:43:43;125163.41;;;15.44;nan
19845;BME280;10083;51.038;7.012;2023-08-07T00:46:11;125619.03;;;15.48;nan
19845;BME280;10083;51.038;7.012;2023-08-07T00:48:47;126173.28;;;15.65;nan
19845;BME280;10083;51.038;7.012;2023-08-07T00:51:18;126429.63;;;15.56;nan
19845;BME280;10083;51.038;7.012;2023-08-07T00:53:47;126744.72;;;15.53;nan
19845;BME280;10083;51.038;7.012;2023-08-07T00:56:18;126961.88;;;15.48;nan
19845;BME280;10083;51.038;7.012;2023-08-07T00:58:48;127154.22;;;15.49;nan
19845;BME280;10083;51.038;7.012;2023-08-07T01:01:33;127462.09;;;15.58;nan
19845;BME280;10083;51.038;7.012;2023-08-07T01:04:10;127636.38;;;15.38;nan
19845;BME280;10083;51.038;7.012;2023-08-07T01:06:38;128156.56;;;15.55;nan
19845;BME280;10083;51.038;7.012;2023-08-07T01:09:08;128299.28;;;15.27;nan
19845;BME280;10083;51.038;7.012;2023-08-07T01:11:48;129047.41;;;15.54;nan
19845;BME280;10083;51.038;7.012;2023-08-07T01:14:40;129381.25;;;15.46;nan
19845;BME280;10083;51.038;7.012;2023-08-07T01:17:30;129954.75;;;15.52;nan
19845;BME280;10083;51.038;7.012;2023-08-07T01:20:11;130287.41;;;15.44;nan
19845;BME280;10083;51.038;7.012;2023-08-07T01:22:49;130963.00;;;15.41;nan
19845;BME280;10083;51.038;7.012;2023-08-07T01:25:25;131437.91;;;15.37;nan
19845;BME280;10083;51.038;7.012;2023-08-07T01:28:17;131882.16;;;15.31;nan
19845;BME280;10083;51.038;7.012;2023-08-07T01:31:03;132519.34;;;15.29;nan
19845;BME280;10083;51.038;7.012;2023-08-07T01:33:56;133468.41;;;15.53;nan
19845;BME280;10083;51.038;7.012;2023-08-07T01:36:45;133833.84;;;15.51;nan
19845;BME280;10083;51.038;7.012;2023-08-07T01:39:27;134028.25;;;15.45;nan
19845;BME280;10083;51.038;7.012;2023-08-07T01:42:07;134260.13;;;15.29;nan
19845;BME280;10083;51.038;7.012;2023-08-07T01:44:42;134860.59;;;15.42;nan
19845;BME280;10083;51.038;7.012;2023-08-07T01:47:10;135172.84;;;15.48;nan
19845;BME280;10083;51.038;7.012;2023-08-07T01:49:47;135180.94;;;15.40;nan
19845;BME280;10083;51.038;7.012;2023-08-07T01:52:30;135285.53;;;15.37;nan
19845;BME280;10083;51.038;7.012;2023-08-07T01:55:07;135378.06;;;15.34;nan
19845;BME280;10083;51.038;7.012;2023-08-07T01:57:46;135463.50;;;15.27;nan
19845;BME280;10083;51.038;7.012;2023-08-07T02:00:14;135714.34;;;15.33;nan
19845;BME280;10083;51.038;7.012;2023-08-07T02:02:45;135894.66;;;15.28;nan
19845;BME280;10083;51.038;7.012;2023-08-07T02:05:13;136084.47;;;15.30;nan
19845;BME280;10083;51.038;7.012;2023-08-07T02:07:44;136178.25;;;15.34;nan
19845;BME280;10083;51.038;7.012;2023-08-07T02:10:50;136141.63;;;15.30;nan
19845;BME280;10083;51.038;7.012;2023-08-07T02:13:14;136281.41;;;15.38;nan
19845;BME280;10083;51.038;7.012;2023-08-07T02:15:51;136246.00;;;15.38;nan
19845;BME280;10083;51.038;7.012;2023-08-07T02:18:19;136490.25;;;15.52;nan
19845;BME280;10083;51.038;7.012;2023-08-07T02:20:59;136173.25;;;15.18;nan
19845;BME280;10083;51.038;7.012;2023-08-07T02:23:36;136753.81;;;15.34;nan
19845;BME280;10083;51.038;7.012;2023-08-07T02:26:16;136881.75;;;15.23;nan
19845;BME280;10083;51.038;7.012;2023-08-07T02:29:02;137226.81;;;15.36;nan
19845;BME280;10083;51.038;7.012;2023-08-07T02:31:31;137326.25;;;15.13;nan
19845;BME280;10083;51.038;7.012;2023-08-07T02:34:04;138575.19;;;15.10;nan
19845;BME280;10083;51.038;7.012;2023-08-07T02:36:31;139350.16;;;15.22;nan
19845;BME280;10083;51.038;7.012;2023-08-07T02:39:00;139757.84;;;15.16;nan
19845;BME280;10083;51.038;7.012;2023-08-07T02:41:31;140102.22;;;15.08;nan
19845;BME280;10083;51.038;7.012;2023-08-07T02:44:01;140435.69;;;15.04;nan
19845;BME280;10083;51.038;7.012;2023-08-07T02:46:28;140730.41;;;15.02;nan
19845;BME280;10083;51.038;7.012;2023-08-07T02:48:59;141008.06;;;14.92;nan
19845;BME280;10083;51.038;7.012;2023-08-07T02:51:26;141621.06;;;15.12;nan
19845;BME280;10083;51.038;7.012;2023-08-07T02:53:55;141725.06;;;15.05;nan
19845;BME280;10083;51.038;7.012;2023-08-07T02:56:22;141998.69;;;15.06;nan
19845;BME280;10083;51.038;7.012;2023-08-07T02:58:52;142535.31;;;15.17;nan
19845;BME280;10083;51.038;7.012;2023-08-07T03:01:22;142891.09;;;15.22;nan
19845;BME280;10083;51.038;7.012;2023-08-07T03:03:50;142866.66;;;15.11;nan
19845;BME280;10083;51.038;7.012;2023-08-07T03:06:17;143159.47;;;15.22;nan
19845;BME280;10083;51.038;7.012;2023-08-07T03:08:44;143396.84;;;15.32;nan
19845;BME280;10083;51.038;7.012;2023-08-07T03:11:12;143369.88;;;15.26;nan
19845;BME280;10083;51.038;7.012;2023-08-07T03:13:40;142986.78;;;15.15;nan
19845;BME280;10083;51.038;7.012;2023-08-07T03:16:09;143867.25;;;15.15;nan
19845;BME280;10083;51.038;7.012;2023-08-07T03:18:36;144438.25;;;15.28;nan
19845;BME280;10083;51.038;7.012;2023-08-07T03:21:04;144333.47;;;15.15;nan
19845;BME280;10083;51.038;7.012;2023-08-07T03:23:31;144546.81;;;15.24;nan
19845;BME280;10083;51.038;7.012;2023-08-07T03:26:02;144341.19;;;15.17;nan
19845;BME280;10083;51.038;7.012;2023-08-07T03:28:32;144497.28;;;15.14;nan
19845;BME280;10083;51.038;7.012;2023-08-07T03:31:00;144398.59;;;15.11;nan
19845;BME280;10083;51.038;7.012;2023-08-07T03:33:32;144751.56;;;15.23;nan
19845;BME280;10083;51.038;7.012;2023-08-07T03:35:59;144405.69;;;15.04;nan
19845;BME280;10083;51.038;7.012;2023-08-07T03:38:28;144521.06;;;15.12;nan
19845;BME280;10083;51.038;7.012;2023-08-07T03:40:56;144771.47;;;15.14;nan
19845;BME280;10083;51.038;7.012;2023-08-07T03:43:24;144680.34;;;15.07;nan
19845;BME280;10083;51.038;7.012;2023-08-07T03:45:54;144767.94;;;15.11;nan
19845;BME280;10083;51.038;7.012;2023-08-07T03:48:23;144561.28;;;15.03;nan
19845;BME280;10083;51.038;7.012;2023-08-07T03:51:01;144485.44;;;15.01;nan
19845;BME280;10083;51.038;7.012;2023-08-07T03:53:32;144366.88;;;14.94;nan
19845;BME280;10083;51.038;7.012;2023-08-07T03:55:59;144214.38;;;14.88;nan
19845;BME280;10083;51.038;7.012;2023-08-07T03:58:28;144284.59;;;14.91;nan
19845;BME280;10083;51.038;7.012;2023-08-07T04:00:55;144741.69;;;15.25;nan
19845;BME280;10083;51.038;7.012;2023-08-07T04:03:23;144268.25;;;15.14;nan
19845;BME280;10083;51.038;7.012;2023-08-07T04:05:52;143822.56;;;15.03;nan
19845;BME280;10083;51.038;7.012;2023-08-07T04:08:21;143635.53;;;15.04;nan
19845;BME280;10083;51.038;7.012;2023-08-07T04:10:58;143503.66;;;14.97;nan
19845;BME280;10083;51.038;7.012;2023-08-07T04:13:26;143491.06;;;15.04;nan
19845;BME280;10083;51.038;7.012;2023-08-07T04:15:56;143405.31;;;14.98;nan
19845;BME280;10083;51.038;7.012;2023-08-07T04:18:25;143560.94;;;15.08;nan
19845;BME280;10083;51.038;7.012;2023-08-07T04:20:53;143664.31;;;15.20;nan
19845;BME280;10083;51.038;7.012;2023-08-07T04:23:23;143388.72;;;15.16;nan
19845;BME280;10083;51.038;7.012;2023-08-07T04:25:52;143190.75;;;15.06;nan
19845;BME280;10083;51.038;7.012;2023-08-07T04:28:20;143096.22;;;14.92;nan
19845;BME280;10083;51.038;7.012;2023-08-07T04:30:49;143436.00;;;15.23;nan
19845;BME280;10083;51.038;7.012;2023-08-07T04:33:17;142622.34;;;14.97;nan
19845;BME280;10083;51.038;7.012;2023-08-07T04:35:44;142751.78;;;15.23;nan
19845;BME280;10083;51.038;7.012;2023-08-07T04:38:12;142160.81;;;15.11;nan
19845;BME280;10083;51.038;7.012;2023-08-07T04:40:45;141908.91;;;15.20;nan
19845;BME280;10083;51.038;7.012;2023-08-07T04:43:13;141455.50;;;15.14;nan
19845;BME280;10083;51.038;7.012;2023-08-07T04:45:41;141079.53;;;15.14;nan
19845;BME280;10083;51.038;7.012;2023-08-07T04:48:12;140729.31;;;15.15;nan
19845;BME280;10083;51.038;7.012;2023-08-07T04:50:40;140680.69;;;15.27;nan
19845;BME280;10083;51.038;7.012;2023-08-07T04:53:08;140512.50;;;15.44;nan
19845;BME280;10083;51.038;7.012;2023-08-07T04:55:35;139779.84;;;15.29;nan
19845;BME280;10083;51.038;7.012;2023-08-07T04:58:08;139476.66;;;15.45;nan
19845;BME280;10083;51.038;7.012;2023-08-07T05:00:35;138627.84;;;15.45;nan
19845;BME280;10083;51.038;7.012;2023-08-07T05:03:02;137793.69;;;15.47;nan
19845;BME280;10083;51.038;7.012;2023-08-07T05:05:29;137332.44;;;15.42;nan
19845;BME280;10083;51.038;7.012;2023-08-07T05:07:58;136835.00;;;15.32;nan
19845;BME280;10083;51.038;7.012;2023-08-07T05:10:25;136728.72;;;15.28;nan
19845;BME280;10083;51.038;7.012;2023-08-07T05:12:53;136717.25;;;15.34;nan
19845;BME280;10083;51.038;7.012;2023-08-07T05:15:23;136629.63;;;15.31;nan
19845;BME280;10083;51.038;7.012;2023-08-07T05:17:52;136465.03;;;15.27;nan
19845;BME280;10083;51.038;7.012;2023-08-07T05:20:19;136622.13;;;15.41;nan
19845;BME280;10083;51.038;7.012;2023-08-07T05:22:46;136459.34;;;15.47;nan
19845;BME280;10083;51.038;7.012;2023-08-07T05:25:14;136204.69;;;15.51;nan
19845;BME280;10083;51.038;7.012;2023-08-07T05:27:45;135789.59;;;15.47;nan
19845;BME280;10083;51.038;7.012;2023-08-07T05:30:13;135548.56;;;15.51;nan
19845;BME280;10083;51.038;7.012;2023-08-07T05:32:42;135329.53;;;15.47;nan
19845;BME280;10083;51.038;7.012;2023-08-07T05:35:09;135009.88;;;15.36;nan
19845;BME280;10083;51.038;7.012;2023-08-07T05:37:37;135101.34;;;15.53;nan
19845;BME280;10083;51.038;7.012;2023-08-07T05:40:15;134702.00;;;15.44;nan
19845;BME280;10083;51.038;7.012;2023-08-07T05:42:43;134424.84;;;15.39;nan
19845;BME280;10083;51.038;7.012;2023-08-07T05:45:10;134248.38;;;15.38;nan
19845;BME280;10083;51.038;7.012;2023-08-07T05:47:43;134100.16;;;15.45;nan
19845;BME280;10083;51.038;7.012;2023-08-07T05:50:10;133945.41;;;15.51;nan
19845;BME280;10083;51.038;7.012;2023-08-07T05:58:00;132876.06;;;15.51;nan
19845;BME280;10083;51.038;7.012;2023-08-07T06:00:28;132626.81;;;15.55;nan
19845;BME280;10083;51.038;7.012;2023-08-07T06:02:57;132287.31;;;15.41;nan
19845;BME280;10083;51.038;7.012;2023-08-07T06:05:25;132088.97;;;15.28;nan
19845;BME280;10083;51.038;7.012;2023-08-07T06:07:52;132115.03;;;15.27;nan
19845;BME280;10083;51.038;7.012;2023-08-07T06:10:20;132137.47;;;15.38;nan
19845;BME280;10083;51.038;7.012;2023-08-07T06:12:48;131820.78;;;15.16;nan
19845;BME280;10083;51.038;7.012;2023-08-07T06:15:23;132034.38;;;15.41;nan
19845;BME280;10083;51.038;7.012;2023-08-07T06:17:50;132016.16;;;15.49;nan
19845;BME280;10083;51.038;7.012;2023-08-07T06:20:23;131814.38;;;15.28;nan
19845;BME280;10083;51.038;7.012;2023-08-07T06:22:50;131805.09;;;15.12;nan
19845;BME280;10083;51.038;7.012;2023-08-07T06:25:29;132454.25;;;15.35;nan
19845;BME280;10083;51.038;7.012;2023-08-07T06:27:56;132545.69;;;15.22;nan
19845;BME280;10083;51.038;7.012;2023-08-07T06:30:24;132987.31;;;15.35;nan
19845;BME280;10083;51.038;7.012;2023-08-07T06:32:51;133265.38;;;15.40;nan
19845;BME280;10083;51.038;7.012;2023-08-07T06:35:23;133167.44;;;15.27;nan
19845;BME280;10083;51.038;7.012;2023-08-07T06:37:50;133358.72;;;15.38;nan
19845;BME280;10083;51.038;7.012;2023-08-07T06:40:18;133497.69;;;15.45;nan
19845;BME280;10083;51.038;7.012;2023-08-07T06:42:52;133385.66;;;15.32;nan
19845;BME280;10083;51.038;7.012;2023-08-07T06:45:22;133522.66;;;15.23;nan
19845;BME280;10083;51.038;7.012;2023-08-07T06:48:23;133925.13;;;15.30;nan
19845;BME280;10083;51.038;7.012;2023-08-07T06:54:19;133997.75;;;15.05;nan
19845;BME280;10083;51.038;7.012;2023-08-07T06:57:14;134662.81;;;15.26;nan
19845;BME280;10083;51.038;7.012;2023-08-07T06:59:45;135077.91;;;15.36;nan
19845;BME280;10083;51.038;7.012;2023-08-07T07:02:14;135134.63;;;15.23;nan
19845;BME280;10083;51.038;7.012;2023-08-07T07:04:41;135243.41;;;15.09;nan
19845;BME280;10083;51.038;7.012;2023-08-07T07:07:08;135790.38;;;15.23;nan
19845;BME280;10083;51.038;7.012;2023-08-07T07:09:37;135983.59;;;15.23;nan
19845;BME280;10083;51.038;7.012;2023-08-07T07:12:05;136222.88;;;15.12;nan
19845;BME280;10083;51.038;7.012;2023-08-07T07:14:33;136654.22;;;15.20;nan
19845;BME280;10083;51.038;7.012;2023-08-07T07:17:00;137064.41;;;15.18;nan
19845;BME280;10083;51.038;7.012;2023-08-07T07:19:34;137331.78;;;15.05;nan
19845;BME280;10083;51.038;7.012;2023-08-07T07:22:05;137930.53;;;15.13;nan
19845;BME280;10083;51.038;7.012;2023-08-07T07:24:44;138813.88;;;15.26;nan
19845;BME280;10083;51.038;7.012;2023-08-07T07:27:11;139110.56;;;15.18;nan
19845;BME280;10083;51.038;7.012;2023-08-07T07:32:35;139764.75;;;15.20;nan
19845;BME280;10083;51.038;7.012;2023-08-07T07:35:05;140212.72;;;15.34;nan
19845;BME280;10083;51.038;7.012;2023-08-07T07:37:34;140157.63;;;15.14;nan
19845;BME280;10083;51.038;7.012;2023-08-07T07:40:06;140451.16;;;15.11;nan
19845;BME280;10083;51.038;7.012;2023-08-07T07:42:34;140997.72;;;15.29;nan
19845;BME280;10083;51.038;7.012;2023-08-07T07:45:01;140945.69;;;15.11;nan
19845;BME280;10083;51.038;7.012;2023-08-07T07:47:29;141290.94;;;15.18;nan
19845;BME280;10083;51.038;7.012;2023-08-07T07:50:08;141336.13;;;15.08;nan
19845;BME280;10083;51.038;7.012;2023-08-07T07:52:36;141993.50;;;15.45;nan
19845;BME280;10083;51.038;7.012;2023-08-07T07:55:10;141466.03;;;15.11;nan
19845;BME280;10083;51.038;7.012;2023-08-07T07:57:42;142102.88;;;15.44;nan
19845;BME280;10083;51.038;7.012;2023-08-07T08:00:10;141886.41;;;15.28;nan
19845;BME280;10083;51.038;7.012;2023-08-07T08:02:56;141809.72;;;15.14;nan
19845;BME280;10083;51.038;7.012;2023-08-07T08:05:25;142297.53;;;15.40;nan
19845;BME280;10083;51.038;7.012;2023-08-07T08:07:57;142383.06;;;15.52;nan
19845;BME280;10083;51.038;7.012;2023-08-07T08:10:25;142035.09;;;15.37;nan
19845;BME280;10083;51.038;7.012;2023-08-07T08:12:54;141985.75;;;15.49;nan
19845;BME280;10083;51.038;7.012;2023-08-07T08:15:22;141989.06;;;15.57;nan
19845;BME280;10083;51.038;7.012;2023-08-07T08:17:50;141575.66;;;15.38;nan
19845;BME280;10083;51.038;7.012;2023-08-07T08:20:20;141665.00;;;15.50;nan
19845;BME280;10083;51.038;7.012;2023-08-07T08:22:47;141911.53;;;15.71;nan
19845;BME280;10083;51.038;7.012;2023-08-07T08:25:34;141454.63;;;15.57;nan
19845;BME280;10083;51.038;7.012;2023-08-07T08:28:02;141536.69;;;15.70;nan
19845;BME280;10083;51.038;7.012;2023-08-07T08:30:29;141129.38;;;15.64;nan
19845;BME280;10083;51.038;7.012;2023-08-07T08:33:09;140948.94;;;15.80;nan
19845;BME280;10083;51.038;7.012;2023-08-07T08:35:40;140294.81;;;15.74;nan
19845;BME280;10083;51.038;7.012;2023-08-07T08:38:08;138911.38;;;15.53;nan
19845;BME280;10083;51.038;7.012;2023-08-07T08:40:45;138971.69;;;15.90;nan
19845;BME280;10083;51.038;7.012;2023-08-07T08:43:15;138259.09;;;15.69;nan
19845;BME280;10083;51.038;7.012;2023-08-07T08:45:48;138101.22;;;15.89;nan
19845;BME280;10083;51.038;7.012;2023-08-07T08:48:19;137449.88;;;15.69;nan
19845;BME280;10083;51.038;7.012;2023-08-07T08:50:50;137413.31;;;15.80;nan
19845;BME280;10083;51.038;7.012;2023-08-07T08:57:18;137190.91;;;16.23;nan
19845;BME280;10083;51.038;7.012;2023-08-07T08:59:46;136800.41;;;16.29;nan
19845;BME280;10083;51.038;7.012;2023-08-07T09:02:27;135958.19;;;16.14;nan
19845;BME280;10083;51.038;7.012;2023-08-07T09:04:55;135838.06;;;16.36;nan
19845;BME280;10083;51.038;7.012;2023-08-07T09:07:27;135443.63;;;16.48;nan
19845;BME280;10083;51.038;7.012;2023-08-07T09:09:56;134889.41;;;16.43;nan
19845;BME280;10083;51.038;7.012;2023-08-07T09:12:29;134231.41;;;16.15;nan
19845;BME280;10083;51.038;7.012;2023-08-07T09:18:51;134303.75;;;16.42;nan
19845;BME280;10083;51.038;7.012;2023-08-07T09:25:35;134196.69;;;16.20;nan
19845;BME280;10083;51.038;7.012;2023-08-07T09:28:16;134186.56;;;16.22;nan
19845;BME280;10083;51.038;7.012;2023-08-07T09:30:44;134390.00;;;16.31;nan
19845;BME280;10083;51.038;7.012;2023-08-07T09:33:15;134722.66;;;16.51;nan
19845;BME280;10083;51.038;7.012;2023-08-07T09:43:51;134473.34;;;17.29;nan
19845;BME280;10083;51.038;7.012;2023-08-07T09:46:41;133676.16;;;17.49;nan
19845;BME280;10083;51.038;7.012;2023-08-07T09:49:15;132583.06;;;17.68;nan
19845;BME280;10083;51.038;7.012;2023-08-07T09:51:43;131681.81;;;17.87;nan
19845;BME280;10083;51.038;7.012;2023-08-07T09:54:49;130533.91;;;17.76;nan
19845;BME280;10083;51.038;7.012;2023-08-07T09:57:20;129626.28;;;17.74;nan
19845;BME280;10083;51.038;7.012;2023-08-07T09:59:50;129404.81;;;17.97;nan
19845;BME280;10083;51.038;7.012;2023-08-07T11:17:26;103741.16;;;20.68;nan
19845;BME280;10083;51.038;7.012;2023-08-07T11:19:55;103861.25;;;22.83;nan
19845;BME280;10083;51.038;7.012;2023-08-07T11:22:22;103927.50;;;23.30;nan
19845;BME280;10083;51.038;7.012;2023-08-07T11:24:50;103889.53;;;23.18;nan
19845;BME280;10083;51.038;7.012;2023-08-07T11:27:20;103871.41;;;22.78;nan
19845;BME280;10083;51.038;7.012;2023-08-07T11:29:48;103733.09;;;23.96;nan
19845;BME280;10083;51.038;7.012;2023-08-07T11:32:30;103466.56;;;24.22;nan
19845;BME280;10083;51.038;7.012;2023-08-07T11:34:58;103154.00;;;24.50;nan
19845;BME280;10083;51.038;7.012;2023-08-07T11:37:30;102953.06;;;23.68;nan
19845;BME280;10083;51.038;7.012;2023-08-07T11:40:03;102894.38;;;21.69;nan
19845;BME280;10083;51.038;7.012;2023-08-07T11:42:31;102869.78;;;22.67;nan
19845;BME280;10083;51.038;7.012;2023-08-07T11:44:58;102882.59;;;22.41;nan
19845;BME280;10083;51.038;7.012;2023-08-07T11:47:26;102844.91;;;23.38;nan
19845;BME280;10083;51.038;7.012;2023-08-07T11:50:28;102779.88;;;24.43;nan
19845;BME280;10083;51.038;7.012;2023-08-07T11:52:55;102627.69;;;25.06;nan
19845;BME280;10083;51.038;7.012;2023-08-07T11:55:51;102531.38;;;25.43;nan
19845;BME280;10083;51.038;7.012;2023-08-07T11:58:34;102469.50;;;25.06;nan
19845;BME280;10083;51.038;7.012;2023-08-07T12:01:08;102456.06;;;25.49;nan
19845;BME280;10083;51.038;7.012;2023-08-07T12:04:27;102546.72;;;24.82;nan
19845;BME280;10083;51.038;7.012;2023-08-07T12:07:00;102620.94;;;25.77;nan
19845;BME280;10083;51.038;7.012;2023-08-07T12:09:47;102695.19;;;24.91;nan
19845;BME280;10083;51.038;7.012;2023-08-07T12:12:19;102785.06;;;25.38;nan
19845;BME280;10083;51.038;7.012;2023-08-07T12:15:17;102811.22;;;25.10;nan
19845;BME280;10083;51.038;7.012;2023-08-07T12:18:00;102865.47;;;23.68;nan
19845;BME280;10083;51.038;7.012;2023-08-07T12:20:43;102905.28;;;23.55;nan
19845;BME280;10083;51.038;7.012;2023-08-07T12:23:36;102898.66;;;25.16;nan
19845;BME280;10083;51.038;7.012;2023-08-07T12:26:06;102911.84;;;23.51;nan
19845;BME280;10083;51.038;7.012;2023-08-07T12:28:53;102964.72;;;23.52;nan
19845;BME280;10083;51.038;7.012;2023-08-07T12:31:28;102955.38;;;24.19;nan
19845;BME280;10083;51.038;7.012;2023-08-07T12:33:59;102942.44;;;23.39;nan
19845;BME280;10083;51.038;7.012;2023-08-07T12:36:33;102910.63;;;25.69;nan
19845;BME280;10083;51.038;7.012;2023-08-07T12:39:15;102888.88;;;25.11;nan
19845;BME280;10083;51.038;7.012;2023-08-07T12:41:45;102772.88;;;25.60;nan
19845;BME280;10083;51.038;7.012;2023-08-07T12:45:25;102879.72;;;25.46;nan
19845;BME280;10083;51.038;7.012;2023-08-07T12:51:16;102898.88;;;23.76;nan
19845;BME280;10083;51.038;7.012;2023-08-07T12:54:36;102938.09;;;23.33;nan
19845;BME280;10083;51.038;7.012;2023-08-07T12:57:06;102854.72;;;25.87;nan
19845;BME280;10083;51.038;7.012;2023-08-07T12:59:45;102700.44;;;25.96;nan
19845;BME280;10083;51.038;7.012;2023-08-07T13:02:18;102630.16;;;26.39;nan
19845;BME280;10083;51.038;7.012;2023-08-07T13:08:14;102450.00;;;26.91;nan
19845;BME280;10083;51.038;7.012;2023-08-07T13:10:47;102510.41;;;28.55;nan
19845;BME280;10083;51.038;7.012;2023-08-07T13:13:17;102372.00;;;28.63;nan
19845;BME280;10083;51.038;7.012;2023-08-07T13:15:46;102547.16;;;26.48;nan
19845;BME280;10083;51.038;7.012;2023-08-07T13:18:18;102674.00;;;25.93;nan
19845;BME280;10083;51.038;7.012;2023-08-07T13:20:46;102731.53;;;27.20;nan
19845;BME280;10083;51.038;7.012;2023-08-07T13:23:21;102508.13;;;27.83;nan
19845;BME280;10083;51.038;7.012;2023-08-07T13:25:52;102348.53;;;27.67;nan
19845;BME280;10083;51.038;7.012;2023-08-07T13:28:20;102215.13;;;27.59;nan
19845;BME280;10083;51.038;7.012;2023-08-07T13:31:03;102362.16;;;27.29;nan
19845;BME280;10083;51.038;7.012;2023-08-07T13:33:36;102400.63;;;25.74;nan
19845;BME280;10083;51.038;7.012;2023-08-07T13:36:04;102434.44;;;27.60;nan
19845;BME280;10083;51.038;7.012;2023-08-07T13:42:23;102454.22;;;25.95;nan
19845;BME280;10083;51.038;7.012;2023-08-07T13:45:28;102679.88;;;24.51;nan
19845;BME280;10083;51.038;7.012;2023-08-07T13:48:59;102689.31;;;24.63;nan
19845;BME280;10083;51.038;7.012;2023-08-07T13:51:29;102532.97;;;27.55;nan
19845;BME280;10083;51.038;7.012;2023-08-07T13:54:18;102623.31;;;24.67;nan
19845;BME280;10083;51.038;7.012;2023-08-07T14:04:15;102674.91;;;24.76;nan
19845;BME280;10083;51.038;7.012;2023-08-07T14:23:22;103152.50;;;22.29;nan
